Latest Weather Observations for Daly Waters

IDD60801

Issued at 10:31 am CST Saturday 5 September 2015 (issued every 30 minutes, with the page automatically refreshed every 10 minutes)

About weather observations | Map of weather stations | Latest weather observations for NT | Other Formats
Station Details ID: 014626 Name: DALY WATERS AIRSTRIP Lat: -16.26 Lon: 133.38 Height: 209.84 m
Data from the previous 72 hours. | See also: Recent months at Daly Waters
Date/Time
CST
Temp
°C
App
Temp
°C
Dew
Point
Rel
Hum
%
Delta-T
°C
Wind Press
QNH
hPa
Press
MSL
hPa
Rain
since 9 am
mm
Dir
 
Spd
km/h
Gust
km/h
Spd
kts
Gust
kts
05/10:30am 30.7 26.4 1.1 15 14.6 E 13 19 7 10 1020.2 1019.1 0.0
05/10:00am 29.1 24.6 2.4 18 13.3 E 15 22 8 12 1020.4 1019.3 0.0
05/09:30am 27.8 23.7 2.1 19 12.6 E 13 24 7 13 1020.4 1019.3 0.0
05/09:00am 26.2 22.9 2.2 21 11.7 E 9 17 5 9 1020.4 1019.3 0.0
05/08:30am 24.3 21.6 3.6 26 10.2 ESE 7 17 4 9 1020.2 1019.1 0.0
05/08:00am 20.5 18.3 5.3 37 7.6 SE 6 9 3 5 1020.0 1018.9 0.0
05/07:30am 16.5 14.7 5.2 47 5.4 SE 4 7 2 4 1019.7 1018.5 0.0
05/07:00am 11.9 9.9 4.4 60 3.4 SE 4 6 2 3 1019.2 1018.0 0.0
05/06:30am 11.4 9.4 4.2 61 3.3 SE 4 6 2 3 1018.9 1017.7 0.0
05/06:00am 10.7 8.1 3.3 60 3.3 SE 6 6 3 3 1018.3 1017.2 0.0
05/05:30am 11.1 8.9 3.2 58 3.5 SSE 4 6 2 3 1018.0 1016.9 0.0
05/05:00am 11.5 9.2 3.0 56 3.8 SE 4 6 2 3 1017.8 1016.7 0.0
05/04:30am 11.4 8.8 3.2 57 3.6 SE 6 6 3 3 1017.5 1016.4 0.0
05/04:00am 11.7 9.1 3.2 56 3.8 SE 6 6 3 3 1017.5 1016.4 0.0
05/03:30am 12.1 10.2 3.1 54 4.0 SE 2 4 1 2 1017.7 1016.6 0.0
05/03:00am 12.6 10.3 3.0 52 4.3 SE 4 4 2 2 1017.8 1016.7 0.0
05/02:30am 13.1 10.8 2.6 49 4.7 SE 4 6 2 3 1017.8 1016.7 0.0
05/02:00am 13.8 11.5 2.7 47 5.0 SE 4 4 2 2 1017.9 1016.8 0.0
05/01:30am 14.6 11.8 2.2 43 5.5 ESE 6 7 3 4 1018.0 1016.9 0.0
05/01:00am 15.9 13.3 1.2 37 6.5 SSE 4 4 2 2 1018.3 1017.2 0.0
05/12:30am 19.1 16.1 0.7 29 8.3 ESE 6 6 3 3 1018.4 1017.3 0.0
05/12:00am 21.2 18.3 1.5 27 9.1 E 6 9 3 5 1018.7 1017.5 0.0
 
Date/Time
CST
Temp
°C
App
Temp
°C
Dew
Point
Rel
Hum
%
Delta-T
°C
Wind Press
QNH
hPa
Press
MSL
hPa
Rain
since 9 am
mm
Dir
 
Spd
km/h
Gust
km/h
Spd
kts
Gust
kts
04/11:30pm 21.0 18.0 0.8 26 9.2 SE 6 7 3 4 1018.4 1017.3 0.0
04/11:00pm 23.2 20.2 0.9 23 10.4 SE 6 9 3 5 1018.1 1017.0 0.0
04/10:30pm 22.7 19.7 1.1 24 10.1 SE 6 9 3 5 1018.0 1016.9 0.0
04/10:00pm 21.8 18.8 0.9 25 9.6 SE 6 7 3 4 1017.9 1016.8 0.0
04/09:30pm 24.6 21.5 1.5 22 11.0 SSE 7 9 4 5 1017.6 1016.5 0.0
04/09:00pm 25.2 22.2 2.0 22 11.2 SSE 7 11 4 6 1017.5 1016.4 0.0
04/08:30pm 21.2 18.3 1.5 27 9.1 SSE 6 7 3 4 1017.2 1016.1 0.0
04/08:00pm 21.6 18.7 1.3 26 9.4 SSE 6 7 3 4 1016.8 1015.7 0.0
04/07:30pm 23.2 20.1 0.3 22 10.5 SSE 6 7 3 4 1016.4 1015.3 0.0
04/07:00pm 25.7 22.4 -1.2 17 12.3 SSE 6 7 3 4 1016.1 1015.0 0.0
04/06:30pm 30.5 27.4 0.0 14 14.7 SSE 6 9 3 5 1015.8 1014.7 0.0
04/06:00pm 32.9 29.2 -0.2 12 16.2 SE 9 17 5 9 1015.6 1014.4 0.0
04/05:30pm 33.9 30.3 0.5 12 16.7 SE 9 17 5 9 1015.4 1014.2 0.0
04/05:00pm 34.4 30.1 0.9 12 16.9 SE 13 20 7 11 1015.2 1014.0 0.0
04/04:30pm 34.9 30.8 2.4 13 16.8 ESE 13 24 7 13 1015.0 1013.8 0.0
04/04:00pm 34.7 31.5 3.3 14 16.5 SE 9 20 5 11 1015.0 1013.8 0.0
04/03:30pm 35.0 32.5 4.5 15 16.3 SE 7 17 4 9 1015.1 1013.9 0.0
04/03:00pm 34.9 31.2 4.4 15 16.3 SE 13 24 7 13 1015.5 1014.3 0.0
04/02:30pm 34.0 32.0 6.3 18 15.2 NNE 6 11 3 6 1015.8 1014.7 0.0
04/02:00pm 34.3 31.8 6.6 18 15.3 ESE 9 19 5 10 1016.3 1015.2 0.0
04/01:30pm 35.0 33.4 8.7 20 15.0 ESE 7 15 4 8 1016.8 1015.7 0.0
04/01:00pm 32.7 31.0 8.2 22 13.8 ESE 7 13 4 7 1017.3 1016.2 0.0
04/12:30pm 31.8 29.7 8.1 23 13.2 SE 9 17 5 9 1017.8 1016.7 0.0
04/12:00pm 32.2 29.7 9.7 25 12.9 NE 13 20 7 11 1018.7 1017.5 0.0
04/11:30am 31.4 29.6 9.6 26 12.4 E 9 17 5 9 1019.4 1018.2 0.0
04/11:00am 30.6 29.3 10.0 28 11.8 E 7 17 4 9 1019.8 1018.6 0.0
04/10:30am 29.2 27.9 11.3 33 10.4 NE 9 19 5 10 1020.1 1019.0 0.0
04/10:00am 28.1 28.0 13.2 39 8.9 NE 6 13 3 7 1020.3 1019.2 0.0
04/09:30am 27.4 27.1 12.6 40 8.7 ENE 6 17 3 9 1020.5 1019.4 0.0
04/09:00am 25.8 24.0 9.6 36 9.0 E 9 13 5 7 1020.6 1019.5 0.0
04/08:30am 24.3 22.4 6.6 32 9.2 ESE 6 9 3 5 1020.4 1019.3 0.0
04/08:00am 22.0 19.9 4.1 31 8.8 E 4 6 2 3 1020.2 1019.1 0.0
04/07:30am 19.5 17.3 3.6 35 7.6 SE 4 9 2 5 1019.8 1018.6 0.0
04/07:00am 16.0 14.1 4.7 47 5.4 S 4 7 2 4 1019.5 1018.3 0.0
04/06:30am 15.6 14.0 4.3 47 5.3 S 2 4 1 2 1019.1 1017.9 0.0
04/06:00am 15.7 13.7 4.4 47 5.3 SSE 4 4 2 2 1018.4 1017.3 0.0
04/05:30am 16.3 14.2 3.7 43 5.9 ESE 4 4 2 2 1018.0 1016.9 0.0
04/05:00am 17.2 15.0 3.5 40 6.4 ESE 4 6 2 3 1017.8 1016.7 0.0
04/04:30am 17.5 15.1 2.3 36 7.0 ESE 4 6 2 3 1017.5 1016.4 0.0
04/04:00am 18.9 16.1 1.9 32 7.8 SE 6 7 3 4 1017.4 1016.3 0.0
04/03:30am 21.3 18.4 1.6 27 9.2 SE 6 7 3 4 1017.2 1016.1 0.0
04/03:00am 22.2 19.0 0.7 24 9.9 E 7 11 4 6 1017.2 1016.1 0.0
04/02:30am 22.9 19.7 0.7 23 10.3 ESE 7 13 4 7 1017.3 1016.2 0.0
04/02:00am 22.6 19.5 0.4 23 10.2 ESE 6 9 3 5 1017.4 1016.3 0.0
04/01:30am 22.2 19.2 0.7 24 9.9 SE 6 11 3 6 1017.5 1016.4 0.0
04/01:00am 23.0 20.0 0.8 23 10.3 SE 6 9 3 5 1017.9 1016.8 0.0
04/12:30am 23.9 20.7 0.9 22 10.8 SE 7 11 4 6 1018.2 1017.1 0.0
04/12:00am 23.8 20.9 1.4 23 10.6 E 6 9 3 5 1018.3 1017.2 0.0
 
Date/Time
CST
Temp
°C
App
Temp
°C
Dew
Point
Rel
Hum
%
Delta-T
°C
Wind Press
QNH
hPa
Press
MSL
hPa
Rain
since 9 am
mm
Dir
 
Spd
km/h
Gust
km/h
Spd
kts
Gust
kts
03/11:30pm 25.5 22.2 2.2 22 11.3 SE 9 15 5 8 1017.8 1016.7 0.0
03/11:00pm 25.6 22.8 2.9 23 11.2 SSE 7 11 4 6 1017.6 1016.5 0.0
03/10:30pm 26.4 23.3 3.6 23 11.4 SSE 9 13 5 7 1017.4 1016.3 0.0
03/10:00pm 27.1 24.5 4.2 23 11.7 SE 7 11 4 6 1017.2 1016.1 0.0
03/09:30pm 28.0 25.4 4.3 22 12.1 SE 7 11 4 6 1017.0 1015.9 0.0
03/09:00pm 28.3 25.9 5.2 23 12.0 SSE 7 11 4 6 1016.7 1015.6 0.0
03/08:30pm 29.1 26.8 5.9 23 12.3 SSE 7 11 4 6 1016.3 1015.2 0.0
03/08:00pm 29.7 27.7 7.0 24 12.3 SSE 7 11 4 6 1015.9 1014.8 0.0
03/07:30pm 29.4 27.9 8.5 27 11.6 SSE 6 9 3 5 1015.5 1014.3 0.0
03/07:00pm 30.2 28.6 8.0 25 12.3 SSE 6 7 3 4 1015.0 1013.8 0.0
03/06:30pm 32.3 30.7 7.9 22 13.6 SSE 6 7 3 4 1014.6 1013.4 0.0
03/06:00pm 34.3 32.6 7.4 19 15.0 SE 6 11 3 6 1014.3 1013.1 0.0
03/05:30pm 35.2 33.8 7.3 18 15.6 ENE 4 7 2 4 1014.2 1013.0 0.0
03/05:00pm 35.7 33.3 6.9 17 16.1 E 9 20 5 11 1014.1 1012.9 0.0
03/04:30pm 36.1 34.3 7.2 17 16.2 SSE 6 11 3 6 1013.9 1012.7 0.0
03/04:00pm 36.2 34.4 7.3 17 16.3 E 6 13 3 7 1014.1 1012.9 0.0
03/03:30pm 35.8 34.0 7.8 18 15.8 E 7 24 4 13 1014.2 1013.0 0.0
03/03:00pm 36.1 33.7 7.2 17 16.2 E 9 22 5 12 1014.3 1013.1 0.0
03/02:30pm 35.6 33.0 7.6 18 15.8 NE 11 24 6 13 1014.8 1013.6 0.0
03/02:00pm 35.4 33.7 8.3 19 15.4 ESE 7 17 4 9 1015.1 1013.9 0.0
03/01:30pm 35.2 33.1 8.1 19 15.4 ENE 9 20 5 11 1015.6 1014.4 0.0
03/01:00pm 35.3 32.4 8.2 19 15.4 E 13 26 7 14 1016.1 1015.0 0.0
03/12:30pm 34.3 31.8 8.1 20 14.8 ENE 11 24 6 13 1016.6 1015.5 0.0
03/12:00pm 33.3 31.7 8.0 21 14.2 ESE 6 17 3 9 1017.1 1016.0 0.0
03/11:30am 32.6 30.7 7.4 21 13.9 ESE 7 15 4 8 1017.7 1016.6 0.0
03/11:00am 31.9 29.9 8.8 24 13.0 ESE 9 20 5 11 1018.2 1017.1 0.0
03/10:30am 30.6 28.7 7.7 24 12.6 SE 7 13 4 7 1018.4 1017.3 0.0
03/10:00am 29.7 27.2 6.4 23 12.5 SSE 9 13 5 7 1018.6 1017.4 0.0
03/09:30am 29.2 27.5 6.0 23 12.3 SE 4 9 2 5 1018.6 1017.4 0.0
03/09:00am 28.3 26.2 5.8 24 11.8 ESE 6 9 3 5 1018.2 1017.1 0.0
03/08:30am 27.0 24.9 5.9 26 11.0 ESE 6 7 3 4 1018.0 1016.9 0.0
03/08:00am 24.3 22.2 5.6 30 9.6 SE 6 9 3 5 1017.7 1016.6 0.0
03/07:30am 19.5 18.4 6.9 44 6.4 SE 2 4 1 2 1017.5 1016.4 0.0
03/07:00am 16.4 14.6 7.1 54 4.7 SE 6 9 3 5 1017.2 1016.1 0.0
03/06:30am 17.4 15.4 6.3 48 5.5 S 6 7 3 4 1016.5 1015.4 0.0
03/06:00am 18.7 17.2 6.9 46 6.0 SW 4 9 2 5 1016.0 1014.9 0.0
03/05:30am 17.5 16.9 7.3 51 5.2 CALM 0 2 0 1 1015.5 1014.3 0.0
03/05:00am 18.4 17.4 7.2 48 5.7 S 2 4 1 2 1015.3 1014.1 0.0
03/04:30am 20.4 19.3 7.1 42 6.8 S 2 4 1 2 1015.4 1014.2 0.0
03/04:00am 21.2 19.9 7.8 42 7.0 SSE 4 6 2 3 1015.4 1014.2 0.0
03/03:30am 21.5 20.4 7.0 39 7.5 SSW 2 6 1 3 1015.5 1014.3 0.0
03/03:00am 22.4 21.6 6.6 36 8.1 CALM 0 0 0 0 1015.6 1014.4 0.0
03/02:30am 23.7 21.9 5.6 31 9.2 SE 4 6 2 3 1015.6 1014.4 0.0
03/02:00am 24.3 22.9 5.6 30 9.6 ESE 2 9 1 5 1015.7 1014.5 0.0
03/01:30am 22.2 20.5 6.0 35 8.3 S 4 6 2 3 1015.4 1014.2 0.0
03/01:00am 23.8 21.7 3.7 27 9.9 S 4 4 2 2 1015.5 1014.3 0.0
03/12:30am 25.6 23.2 4.1 25 10.8 SSE 6 9 3 5 1015.6 1014.4 0.0
03/12:00am 26.7 24.3 4.5 24 11.3 S 6 9 3 5 1015.7 1014.5 0.0
 
Date/Time
CST
Temp
°C
App
Temp
°C
Dew
Point
Rel
Hum
%
Delta-T
°C
Wind Press
QNH
hPa
Press
MSL
hPa
Rain
since 9 am
mm
Dir
 
Spd
km/h
Gust
km/h
Spd
kts
Gust
kts
02/11:30pm 27.6 25.4 5.2 24 11.6 S 6 9 3 5 1015.7 1014.5 0.0
02/11:00pm 28.5 26.3 6.0 24 11.9 S 7 11 4 6 1015.7 1014.5 0.0
02/10:30pm 29.1 27.7 7.1 25 11.9 SSW 4 7 2 4 1015.5 1014.3 0.0
02/10:00pm 30.3 28.6 7.5 24 12.5 SSE 6 11 3 6 1015.2 1014.0 0.0
02/09:30pm 30.1 28.3 9.6 28 11.6 SSW 9 19 5 10 1014.9 1013.7 0.0
02/09:00pm 26.7 27.2 11.6 39 8.7 CALM 0 0 0 0 1014.6 1013.4 0.0
02/08:30pm 27.7 28.1 11.3 36 9.5 CALM 0 0 0 0 1014.3 1013.1 0.0
02/08:00pm 28.4 28.0 11.0 34 10.0 WSW 4 6 2 3 1014.0 1012.8 0.0
02/07:30pm 30.2 29.4 11.2 31 11.1 WSW 6 7 3 4 1013.4 1012.3 0.0
02/07:00pm 30.7 30.2 10.6 29 11.6 WNW 4 6 2 3 1013.0 1011.9 0.0
02/06:30pm 32.9 32.8 10.9 26 12.9 WNW 2 4 1 2 1012.7 1011.6 0.0
02/06:00pm 34.1 34.1 11.3 25 13.5 WSW 2 4 1 2 1012.4 1011.3 0.0
02/05:30pm 34.0 33.5 10.6 24 13.7 WNW 4 9 2 5 1012.3 1011.2 0.0
02/05:00pm 34.1 33.6 10.7 24 13.7 NW 4 7 2 4 1012.2 1011.1 0.0
02/04:30pm 34.3 33.4 10.8 24 13.8 SW 6 9 3 5 1012.0 1010.9 0.0
02/04:00pm 34.6 33.4 10.4 23 14.2 N 7 15 4 8 1012.0 1010.9 0.0
02/03:30pm 36.2 35.0 10.4 21 15.2 NW 7 17 4 9 1012.1 1011.0 0.0
02/03:00pm 34.1 32.6 10.7 24 13.7 S 9 15 5 8 1012.4 1011.3 0.0
02/02:30pm 34.8 33.5 11.2 24 14.0 SW 9 19 5 10 1012.7 1011.6 0.0
02/02:00pm 35.4 34.4 11.1 23 14.4 W 7 15 4 8 1013.0 1011.9 0.0
02/01:30pm 34.5 34.1 11.0 24 13.9 ESE 4 6 2 3 1013.6 1012.4 0.0
02/01:00pm 35.2 33.4 10.9 23 14.4 NW 11 20 6 11 1014.2 1013.0 0.0
02/12:30pm 34.8 33.9 12.5 26 13.5 NW 9 19 5 10 1014.7 1013.5 0.0
02/12:00pm 33.7 33.0 12.1 27 12.9 WNW 7 19 4 10 1015.3 1014.1 0.0
02/11:30am 32.9 31.8 12.0 28 12.4 W 9 19 5 10 1015.8 1014.7 0.0
02/11:00am 32.5 30.7 12.2 29 12.1 W 13 20 7 11 1016.3 1015.2 0.0

Other Formats:

Comma delimited format used in spreadsheet applications
http://www.bom.gov.au/fwo/IDD60801/IDD60801.94234.axf

JavaScript Object Notation format (JSON) in row-major order
http://www.bom.gov.au/fwo/IDD60801/IDD60801.94234.json